TimeCST,TemperatureF,Dew PointF,Humidity,Sea Level PressureIn,VisibilityMPH,Wind Direction,Wind SpeedMPH,Gust SpeedMPH,PrecipitationIn,Events,Conditions,WindDirDegrees,DateUTC
12:52 AM,36.0,27.0,70,29.87,10.0,West,8.1,-,N/A,,Overcast,270,2013-02-05 06:52:00
1:52 AM,36.0,27.0,70,29.86,10.0,West,10.4,-,N/A,,Overcast,260,2013-02-05 07:52:00
2:52 AM,37.0,27.0,67,29.87,10.0,West,8.1,-,N/A,,Overcast,280,2013-02-05 08:52:00
3:52 AM,37.9,26.1,62,29.87,10.0,WNW,9.2,-,N/A,,Overcast,300,2013-02-05 09:52:00
4:52 AM,37.9,26.1,62,29.88,10.0,West,11.5,-,N/A,,Mostly Cloudy,280,2013-02-05 10:52:00
5:52 AM,37.4,26.6,65,29.86,10.0,WNW,10.4,-,N/A,,Overcast,290,2013-02-05 11:52:00
6:52 AM,39.9,28.0,63,29.94,10.0,NNW,12.7,-,N/A,,Overcast,330,2013-02-05 12:52:00
7:52 AM,39.0,28.0,65,29.98,10.0,NNW,15.0,-,N/A,,Overcast,330,2013-02-05 13:52:00
8:52 AM,37.9,27.0,65,30.02,10.0,NNW,11.5,-,N/A,,Overcast,330,2013-02-05 14:52:00
9:52 AM,39.9,26.1,58,30.04,10.0,NNW,12.7,21.9,N/A,,Overcast,330,2013-02-05 15:52:00
10:52 AM,42.8,24.8,49,30.01,10.0,NNW,12.7,-,N/A,,Clear,330,2013-02-05 16:52:00
11:52 AM,44.1,23.0,43,30.07,10.0,NNW,12.7,19.6,N/A,,Clear,330,2013-02-05 17:52:00
12:52 PM,46.9,21.9,37,30.04,10.0,WNW,11.5,-,N/A,,Clear,300,2013-02-05 18:52:00
1:52 PM,48.0,23.0,37,30.02,10.0,WNW,11.5,17.3,N/A,,Clear,300,2013-02-05 19:52:00
2:52 PM,48.0,23.0,37,29.99,10.0,WNW,8.1,-,N/A,,Clear,290,2013-02-05 20:52:00
3:52 PM,48.9,23.0,36,29.98,10.0,NW,4.6,-,N/A,,Clear,320,2013-02-05 21:52:00
4:52 PM,46.4,24.8,43,29.93,10.0,Variable,3.5,-,N/A,,Clear,0,2013-02-05 22:52:00
5:52 PM,44.1,26.1,49,29.97,10.0,East,3.5,-,N/A,,Clear,100,2013-02-05 23:52:00
6:52 PM,39.9,27.0,60,29.96,10.0,ESE,6.9,-,N/A,,Clear,110,2013-02-06 00:52:00
7:52 PM,39.9,26.1,58,29.97,10.0,ESE,8.1,-,N/A,,Overcast,110,2013-02-06 01:52:00
8:52 PM,39.0,26.1,60,29.97,10.0,East,6.9,-,N/A,,Overcast,90,2013-02-06 02:52:00
9:52 PM,41.0,25.0,53,29.95,10.0,SE,12.7,-,N/A,,Overcast,140,2013-02-06 03:52:00
10:52 PM,39.0,25.0,57,29.94,10.0,SE,11.5,-,N/A,,Scattered Clouds,140,2013-02-06 04:52:00
11:52 PM,37.0,25.0,62,29.91,10.0,SSE,11.5,-,N/A,,Scattered Clouds,150,2013-02-06 05:52:00